sensor_id;sensor_type;location;lat;lon;timestamp;temperature;humidity
5621;DHT22;2832;50.864;12.186;2023-01-24T00:40:02;3.10;99.90
5621;DHT22;2832;50.864;12.186;2023-01-24T00:42:31;3.10;99.90
5621;DHT22;2832;50.864;12.186;2023-01-24T00:45:02;3.10;99.90
5621;DHT22;2832;50.864;12.186;2023-01-24T00:47:33;3.10;99.90
5621;DHT22;2832;50.864;12.186;2023-01-24T00:50:03;3.10;99.90
5621;DHT22;2832;50.864;12.186;2023-01-24T00:52:33;3.20;99.90
5621;DHT22;2832;50.864;12.186;2023-01-24T00:55:06;3.30;99.90
5621;DHT22;2832;50.864;12.186;2023-01-24T00:57:36;3.20;99.90
5621;DHT22;2832;50.864;12.186;2023-01-24T01:00:07;3.20;99.90
5621;DHT22;2832;50.864;12.186;2023-01-24T01:02:38;3.20;99.90
5621;DHT22;2832;50.864;12.186;2023-01-24T01:05:08;3.20;99.90
5621;DHT22;2832;50.864;12.186;2023-01-24T01:07:38;3.20;99.90
5621;DHT22;2832;50.864;12.186;2023-01-24T01:10:18;3.10;99.90
5621;DHT22;2832;50.864;12.186;2023-01-24T01:12:49;3.10;99.90
5621;DHT22;2832;50.864;12.186;2023-01-24T01:15:18;3.10;99.90
5621;DHT22;2832;50.864;12.186;2023-01-24T01:17:48;3.20;99.90
5621;DHT22;2832;50.864;12.186;2023-01-24T01:20:18;3.20;99.90
5621;DHT22;2832;50.864;12.186;2023-01-24T01:22:47;3.20;99.90
5621;DHT22;2832;50.864;12.186;2023-01-24T01:25:20;3.10;99.90
5621;DHT22;2832;50.864;12.186;2023-01-24T01:27:51;3.10;99.90
5621;DHT22;2832;50.864;12.186;2023-01-24T01:30:21;3.10;99.90
5621;DHT22;2832;50.864;12.186;2023-01-24T02:33:17;3.40;99.90
5621;DHT22;2832;50.864;12.186;2023-01-24T02:35:48;3.40;99.90
5621;DHT22;2832;50.864;12.186;2023-01-24T02:38:22;3.40;99.90
5621;DHT22;2832;50.864;12.186;2023-01-24T02:40:54;3.40;99.90
5621;DHT22;2832;50.864;12.186;2023-01-24T02:43:36;3.40;99.90
5621;DHT22;2832;50.864;12.186;2023-01-24T02:46:08;3.50;99.90
5621;DHT22;2832;50.864;12.186;2023-01-24T02:48:41;3.40;99.90
5621;DHT22;2832;50.864;12.186;2023-01-24T02:51:12;3.30;99.90
5621;DHT22;2832;50.864;12.186;2023-01-24T02:53:57;3.30;99.90
5621;DHT22;2832;50.864;12.186;2023-01-24T02:56:27;3.30;99.90
5621;DHT22;2832;50.864;12.186;2023-01-24T02:59:12;3.30;99.90
5621;DHT22;2832;50.864;12.186;2023-01-24T03:01:42;3.30;99.90
5621;DHT22;2832;50.864;12.186;2023-01-24T03:04:15;3.30;99.90
5621;DHT22;2832;50.864;12.186;2023-01-24T03:06:44;3.30;99.90
5621;DHT22;2832;50.864;12.186;2023-01-24T03:09:15;3.30;99.90
5621;DHT22;2832;50.864;12.186;2023-01-24T03:12:00;3.40;99.90
5621;DHT22;2832;50.864;12.186;2023-01-24T03:14:46;3.40;99.90
5621;DHT22;2832;50.864;12.186;2023-01-24T03:17:33;3.30;99.90
5621;DHT22;2832;50.864;12.186;2023-01-24T03:20:21;3.30;99.90
5621;DHT22;2832;50.864;12.186;2023-01-24T03:23:07;3.20;99.90
5621;DHT22;2832;50.864;12.186;2023-01-24T03:25:53;3.30;99.90
5621;DHT22;2832;50.864;12.186;2023-01-24T03:28:38;3.20;99.90
5621;DHT22;2832;50.864;12.186;2023-01-24T03:31:23;3.10;99.90
5621;DHT22;2832;50.864;12.186;2023-01-24T03:34:08;3.20;99.90
5621;DHT22;2832;50.864;12.186;2023-01-24T03:37:06;3.20;99.90
5621;DHT22;2832;50.864;12.186;2023-01-24T03:39:36;3.20;99.90
5621;DHT22;2832;50.864;12.186;2023-01-24T03:42:25;3.20;99.90
5621;DHT22;2832;50.864;12.186;2023-01-24T03:44:56;3.20;99.90
5621;DHT22;2832;50.864;12.186;2023-01-24T03:47:26;3.20;99.90
5621;DHT22;2832;50.864;12.186;2023-01-24T03:49:55;3.20;99.90
5621;DHT22;2832;50.864;12.186;2023-01-24T03:52:51;3.20;99.90
5621;DHT22;2832;50.864;12.186;2023-01-24T03:55:21;3.20;99.90
5621;DHT22;2832;50.864;12.186;2023-01-24T03:57:52;3.20;99.90
5621;DHT22;2832;50.864;12.186;2023-01-24T04:00:22;3.30;99.90
5621;DHT22;2832;50.864;12.186;2023-01-24T04:02:53;3.30;99.90
5621;DHT22;2832;50.864;12.186;2023-01-24T04:05:23;3.30;99.90
5621;DHT22;2832;50.864;12.186;2023-01-24T04:07:57;3.20;99.90
5621;DHT22;2832;50.864;12.186;2023-01-24T04:10:28;3.20;99.90
5621;DHT22;2832;50.864;12.186;2023-01-24T04:12:58;3.20;99.90
5621;DHT22;2832;50.864;12.186;2023-01-24T04:15:29;3.30;99.90
5621;DHT22;2832;50.864;12.186;2023-01-24T04:18:04;3.30;99.90
5621;DHT22;2832;50.864;12.186;2023-01-24T04:20:35;3.20;99.90
5621;DHT22;2832;50.864;12.186;2023-01-24T04:23:26;3.20;99.90
5621;DHT22;2832;50.864;12.186;2023-01-24T04:25:57;3.20;99.90
5621;DHT22;2832;50.864;12.186;2023-01-24T04:28:27;3.20;99.90
5621;DHT22;2832;50.864;12.186;2023-01-24T04:30:59;3.20;99.90
5621;DHT22;2832;50.864;12.186;2023-01-24T05:21:37;3.40;99.90
5621;DHT22;2832;50.864;12.186;2023-01-24T05:24:12;3.30;99.90
5621;DHT22;2832;50.864;12.186;2023-01-24T05:26:59;3.30;99.90
5621;DHT22;2832;50.864;12.186;2023-01-24T05:29:41;3.40;99.90
5621;DHT22;2832;50.864;12.186;2023-01-24T05:32:11;3.40;99.90
5621;DHT22;2832;50.864;12.186;2023-01-24T05:34:40;3.30;99.90
5621;DHT22;2832;50.864;12.186;2023-01-24T05:37:13;3.40;99.90
5621;DHT22;2832;50.864;12.186;2023-01-24T05:39:43;3.30;99.90
5621;DHT22;2832;50.864;12.186;2023-01-24T05:42:13;3.30;99.90
5621;DHT22;2832;50.864;12.186;2023-01-24T05:44:43;3.30;99.90
5621;DHT22;2832;50.864;12.186;2023-01-24T05:47:15;3.40;99.90
5621;DHT22;2832;50.864;12.186;2023-01-24T05:49:45;3.40;99.90
5621;DHT22;2832;50.864;12.186;2023-01-24T05:52:25;3.50;99.90
5621;DHT22;2832;50.864;12.186;2023-01-24T05:55:10;3.50;99.90
5621;DHT22;2832;50.864;12.186;2023-01-24T05:57:55;3.40;99.90
5621;DHT22;2832;50.864;12.186;2023-01-24T06:00:37;3.40;99.90
5621;DHT22;2832;50.864;12.186;2023-01-24T06:03:18;3.30;99.90
5621;DHT22;2832;50.864;12.186;2023-01-24T06:05:51;3.30;99.90
5621;DHT22;2832;50.864;12.186;2023-01-24T06:08:44;3.20;99.90
5621;DHT22;2832;50.864;12.186;2023-01-24T06:11:28;3.20;99.90
5621;DHT22;2832;50.864;12.186;2023-01-24T06:13:59;3.30;99.90
5621;DHT22;2832;50.864;12.186;2023-01-24T06:16:34;3.40;99.90
5621;DHT22;2832;50.864;12.186;2023-01-24T06:19:08;3.40;99.90
5621;DHT22;2832;50.864;12.186;2023-01-24T06:21:44;3.40;99.90
5621;DHT22;2832;50.864;12.186;2023-01-24T06:24:31;3.40;99.90
5621;DHT22;2832;50.864;12.186;2023-01-24T06:27:03;3.20;99.90
5621;DHT22;2832;50.864;12.186;2023-01-24T06:29:34;3.20;99.90
5621;DHT22;2832;50.864;12.186;2023-01-24T10:38:16;3.40;99.90
5621;DHT22;2832;50.864;12.186;2023-01-24T10:40:52;3.40;99.90
5621;DHT22;2832;50.864;12.186;2023-01-24T10:43:24;3.50;99.90
5621;DHT22;2832;50.864;12.186;2023-01-24T10:46:06;3.50;99.90
5621;DHT22;2832;50.864;12.186;2023-01-24T10:48:43;3.60;99.90
5621;DHT22;2832;50.864;12.186;2023-01-24T10:51:16;3.50;99.90
5621;DHT22;2832;50.864;12.186;2023-01-24T10:53:50;3.50;99.90
5621;DHT22;2832;50.864;12.186;2023-01-24T10:56:21;3.40;99.90
5621;DHT22;2832;50.864;12.186;2023-01-24T10:58:56;3.40;99.90
5621;DHT22;2832;50.864;12.186;2023-01-24T11:01:33;3.40;99.90
5621;DHT22;2832;50.864;12.186;2023-01-24T11:04:15;3.40;99.90
5621;DHT22;2832;50.864;12.186;2023-01-24T11:06:50;3.40;99.90
5621;DHT22;2832;50.864;12.186;2023-01-24T11:09:27;3.40;99.90
5621;DHT22;2832;50.864;12.186;2023-01-24T11:12:01;3.50;99.90
5621;DHT22;2832;50.864;12.186;2023-01-24T11:14:32;3.50;99.90
5621;DHT22;2832;50.864;12.186;2023-01-24T11:17:30;3.50;99.90
5621;DHT22;2832;50.864;12.186;2023-01-24T11:20:20;3.40;99.90
5621;DHT22;2832;50.864;12.186;2023-01-24T11:23:04;3.40;99.90
5621;DHT22;2832;50.864;12.186;2023-01-24T11:25:54;3.30;99.90
5621;DHT22;2832;50.864;12.186;2023-01-24T11:28:25;3.40;99.90
5621;DHT22;2832;50.864;12.186;2023-01-24T11:30:59;3.40;99.90
5621;DHT22;2832;50.864;12.186;2023-01-24T11:33:47;3.30;99.90
5621;DHT22;2832;50.864;12.186;2023-01-24T11:36:35;3.30;99.90
5621;DHT22;2832;50.864;12.186;2023-01-24T11:39:33;3.20;99.90
5621;DHT22;2832;50.864;12.186;2023-01-24T11:42:13;3.30;99.90
5621;DHT22;2832;50.864;12.186;2023-01-24T11:45:20;3.20;99.90
5621;DHT22;2832;50.864;12.186;2023-01-24T11:47:59;3.30;99.90
5621;DHT22;2832;50.864;12.186;2023-01-24T11:50:42;3.30;99.90
5621;DHT22;2832;50.864;12.186;2023-01-24T11:53:33;3.40;99.90
5621;DHT22;2832;50.864;12.186;2023-01-24T11:56:10;3.30;99.90
5621;DHT22;2832;50.864;12.186;2023-01-24T12:02:03;3.20;99.90
5621;DHT22;2832;50.864;12.186;2023-01-24T12:05:04;3.30;99.90
5621;DHT22;2832;50.864;12.186;2023-01-24T12:07:52;3.30;99.90
5621;DHT22;2832;50.864;12.186;2023-01-24T12:10:30;3.30;99.90
5621;DHT22;2832;50.864;12.186;2023-01-24T12:13:16;3.30;99.90
5621;DHT22;2832;50.864;12.186;2023-01-24T12:15:59;3.40;99.90
5621;DHT22;2832;50.864;12.186;2023-01-24T12:18:57;3.40;99.90
5621;DHT22;2832;50.864;12.186;2023-01-24T12:21:30;3.30;99.90
5621;DHT22;2832;50.864;12.186;2023-01-24T12:24:02;3.30;99.90
5621;DHT22;2832;50.864;12.186;2023-01-24T12:26:35;3.30;99.90
5621;DHT22;2832;50.864;12.186;2023-01-24T12:29:11;3.20;99.90
5621;DHT22;2832;50.864;12.186;2023-01-24T12:31:46;3.30;99.90
5621;DHT22;2832;50.864;12.186;2023-01-24T12:34:39;3.30;99.90
5621;DHT22;2832;50.864;12.186;2023-01-24T13:38:16;3.20;99.90
5621;DHT22;2832;50.864;12.186;2023-01-24T13:41:02;3.20;99.90
5621;DHT22;2832;50.864;12.186;2023-01-24T13:43:57;3.30;99.90
5621;DHT22;2832;50.864;12.186;2023-01-24T13:49:38;3.30;99.90
5621;DHT22;2832;50.864;12.186;2023-01-24T13:52:36;3.30;99.90
5621;DHT22;2832;50.864;12.186;2023-01-24T13:58:47;3.30;99.90
5621;DHT22;2832;50.864;12.186;2023-01-24T14:01:20;3.30;99.90
5621;DHT22;2832;50.864;12.186;2023-01-24T14:03:56;3.20;99.90
5621;DHT22;2832;50.864;12.186;2023-01-24T14:06:40;3.30;99.90
5621;DHT22;2832;50.864;12.186;2023-01-24T14:09:19;3.20;99.90
5621;DHT22;2832;50.864;12.186;2023-01-24T14:11:55;3.30;99.90
5621;DHT22;2832;50.864;12.186;2023-01-24T14:15:04;3.30;99.90
5621;DHT22;2832;50.864;12.186;2023-01-24T14:17:47;3.30;99.90
5621;DHT22;2832;50.864;12.186;2023-01-24T14:20:22;3.30;99.90
5621;DHT22;2832;50.864;12.186;2023-01-24T14:22:55;3.30;99.90
5621;DHT22;2832;50.864;12.186;2023-01-24T14:25:39;3.30;99.90
5621;DHT22;2832;50.864;12.186;2023-01-24T14:28:17;3.30;99.90
5621;DHT22;2832;50.864;12.186;2023-01-24T14:30:59;3.30;99.90
5621;DHT22;2832;50.864;12.186;2023-01-24T14:33:43;3.30;99.90
5621;DHT22;2832;50.864;12.186;2023-01-24T14:36:26;3.30;99.90
5621;DHT22;2832;50.864;12.186;2023-01-24T14:39:27;3.30;99.90
5621;DHT22;2832;50.864;12.186;2023-01-24T14:41:58;3.30;99.90
5621;DHT22;2832;50.864;12.186;2023-01-24T14:44:29;3.40;99.90
5621;DHT22;2832;50.864;12.186;2023-01-24T14:47:17;3.30;99.90
5621;DHT22;2832;50.864;12.186;2023-01-24T14:49:49;3.40;99.90
5621;DHT22;2832;50.864;12.186;2023-01-24T14:52:20;3.40;99.90
5621;DHT22;2832;50.864;12.186;2023-01-24T14:54:54;3.40;99.90
5621;DHT22;2832;50.864;12.186;2023-01-24T14:57:25;3.50;99.90
5621;DHT22;2832;50.864;12.186;2023-01-24T15:00:02;3.40;99.90
5621;DHT22;2832;50.864;12.186;2023-01-24T15:02:35;3.30;99.90
5621;DHT22;2832;50.864;12.186;2023-01-24T15:05:22;3.20;99.90
5621;DHT22;2832;50.864;12.186;2023-01-24T15:07:53;3.30;99.90
5621;DHT22;2832;50.864;12.186;2023-01-24T15:10:24;3.30;99.90
5621;DHT22;2832;50.864;12.186;2023-01-24T15:12:55;3.40;99.90
5621;DHT22;2832;50.864;12.186;2023-01-24T15:15:29;3.40;99.90
5621;DHT22;2832;50.864;12.186;2023-01-24T15:18:26;3.30;99.90
5621;DHT22;2832;50.864;12.186;2023-01-24T15:21:00;3.30;99.90
5621;DHT22;2832;50.864;12.186;2023-01-24T15:23:31;3.30;99.90
5621;DHT22;2832;50.864;12.186;2023-01-24T15:26:20;3.20;99.90
5621;DHT22;2832;50.864;12.186;2023-01-24T15:28:50;3.20;99.90
5621;DHT22;2832;50.864;12.186;2023-01-24T15:31:21;3.20;99.90
5621;DHT22;2832;50.864;12.186;2023-01-24T15:33:57;3.10;99.90
5621;DHT22;2832;50.864;12.186;2023-01-24T15:36:27;3.20;99.90
5621;DHT22;2832;50.864;12.186;2023-01-24T15:38:59;3.30;99.90
5621;DHT22;2832;50.864;12.186;2023-01-24T15:41:34;3.40;99.90
5621;DHT22;2832;50.864;12.186;2023-01-24T15:44:17;3.40;99.90
5621;DHT22;2832;50.864;12.186;2023-01-24T15:46:56;3.60;99.90
5621;DHT22;2832;50.864;12.186;2023-01-24T15:50:00;3.50;99.90
5621;DHT22;2832;50.864;12.186;2023-01-24T15:53:18;3.60;99.90
5621;DHT22;2832;50.864;12.186;2023-01-24T15:55:51;3.60;99.90
5621;DHT22;2832;50.864;12.186;2023-01-24T15:58:24;3.60;99.90
5621;DHT22;2832;50.864;12.186;2023-01-24T16:00:55;3.60;99.90
5621;DHT22;2832;50.864;12.186;2023-01-24T16:03:28;3.60;99.90
5621;DHT22;2832;50.864;12.186;2023-01-24T16:06:01;3.60;99.90
5621;DHT22;2832;50.864;12.186;2023-01-24T16:08:32;3.60;99.90
5621;DHT22;2832;50.864;12.186;2023-01-24T16:11:03;3.50;99.90
5621;DHT22;2832;50.864;12.186;2023-01-24T16:13:34;3.60;99.90
5621;DHT22;2832;50.864;12.186;2023-01-24T16:16:07;3.60;99.90
5621;DHT22;2832;50.864;12.186;2023-01-24T16:18:37;3.60;99.90
5621;DHT22;2832;50.864;12.186;2023-01-24T16:21:11;3.60;99.90
5621;DHT22;2832;50.864;12.186;2023-01-24T16:23:41;3.50;99.90
5621;DHT22;2832;50.864;12.186;2023-01-24T16:26:20;3.50;99.90
5621;DHT22;2832;50.864;12.186;2023-01-24T16:28:50;3.60;99.90
5621;DHT22;2832;50.864;12.186;2023-01-24T16:31:20;3.60;99.90
5621;DHT22;2832;50.864;12.186;2023-01-24T16:33:49;3.50;99.90
5621;DHT22;2832;50.864;12.186;2023-01-24T16:36:23;3.60;99.90
5621;DHT22;2832;50.864;12.186;2023-01-24T16:38:55;3.70;99.90
5621;DHT22;2832;50.864;12.186;2023-01-24T16:41:33;3.60;99.90
5621;DHT22;2832;50.864;12.186;2023-01-24T16:44:16;3.50;99.90
5621;DHT22;2832;50.864;12.186;2023-01-24T16:46:49;3.50;99.90
5621;DHT22;2832;50.864;12.186;2023-01-24T16:49:19;3.50;99.90
5621;DHT22;2832;50.864;12.186;2023-01-24T16:51:52;3.60;99.90
5621;DHT22;2832;50.864;12.186;2023-01-24T16:54:22;3.50;99.90
5621;DHT22;2832;50.864;12.186;2023-01-24T16:56:52;3.60;99.90
5621;DHT22;2832;50.864;12.186;2023-01-24T16:59:23;3.60;99.90
5621;DHT22;2832;50.864;12.186;2023-01-24T17:01:52;3.60;99.90
5621;DHT22;2832;50.864;12.186;2023-01-24T17:04:26;3.50;99.90
5621;DHT22;2832;50.864;12.186;2023-01-24T17:06:58;3.40;99.90
5621;DHT22;2832;50.864;12.186;2023-01-24T17:09:31;3.40;99.90
5621;DHT22;2832;50.864;12.186;2023-01-24T17:12:04;3.30;99.90
5621;DHT22;2832;50.864;12.186;2023-01-24T17:14:33;3.30;99.90
5621;DHT22;2832;50.864;12.186;2023-01-24T17:17:03;3.40;99.90
5621;DHT22;2832;50.864;12.186;2023-01-24T17:19:33;3.40;99.90
5621;DHT22;2832;50.864;12.186;2023-01-24T17:22:06;3.30;99.90
5621;DHT22;2832;50.864;12.186;2023-01-24T17:24:36;3.40;99.90
5621;DHT22;2832;50.864;12.186;2023-01-24T17:27:10;3.30;99.90
5621;DHT22;2832;50.864;12.186;2023-01-24T17:29:39;3.30;99.90
5621;DHT22;2832;50.864;12.186;2023-01-24T17:32:10;3.40;99.90
5621;DHT22;2832;50.864;12.186;2023-01-24T17:34:39;3.50;99.90
5621;DHT22;2832;50.864;12.186;2023-01-24T18:37:14;3.80;99.90
5621;DHT22;2832;50.864;12.186;2023-01-24T18:39:44;3.80;99.90
5621;DHT22;2832;50.864;12.186;2023-01-24T18:42:16;3.90;99.90
5621;DHT22;2832;50.864;12.186;2023-01-24T18:44:45;3.90;99.90
5621;DHT22;2832;50.864;12.186;2023-01-24T18:47:15;3.80;99.90
5621;DHT22;2832;50.864;12.186;2023-01-24T18:49:45;3.80;99.90
5621;DHT22;2832;50.864;12.186;2023-01-24T18:52:18;3.80;99.90
5621;DHT22;2832;50.864;12.186;2023-01-24T18:54:48;3.80;99.90
5621;DHT22;2832;50.864;12.186;2023-01-24T18:57:18;3.80;99.90
5621;DHT22;2832;50.864;12.186;2023-01-24T18:59:51;3.80;99.90
5621;DHT22;2832;50.864;12.186;2023-01-24T19:02:21;3.80;99.90
5621;DHT22;2832;50.864;12.186;2023-01-24T19:04:51;3.80;99.90
5621;DHT22;2832;50.864;12.186;2023-01-24T19:07:24;3.80;99.90
5621;DHT22;2832;50.864;12.186;2023-01-24T19:09:54;3.80;99.90
5621;DHT22;2832;50.864;12.186;2023-01-24T19:12:27;3.80;99.90
5621;DHT22;2832;50.864;12.186;2023-01-24T19:14:56;3.80;99.90
5621;DHT22;2832;50.864;12.186;2023-01-24T19:17:26;3.80;99.90
5621;DHT22;2832;50.864;12.186;2023-01-24T19:19:55;3.80;99.90
5621;DHT22;2832;50.864;12.186;2023-01-24T19:22:47;3.80;99.90
5621;DHT22;2832;50.864;12.186;2023-01-24T19:25:16;3.80;99.90
5621;DHT22;2832;50.864;12.186;2023-01-24T19:27:46;3.80;99.90
5621;DHT22;2832;50.864;12.186;2023-01-24T19:30:16;3.70;99.90
5621;DHT22;2832;50.864;12.186;2023-01-24T19:32:47;3.60;99.90
5621;DHT22;2832;50.864;12.186;2023-01-24T19:35:17;3.70;99.90
5621;DHT22;2832;50.864;12.186;2023-01-24T19:47:31;3.80;99.90
5621;DHT22;2832;50.864;12.186;2023-01-24T19:50:01;3.80;99.90
5621;DHT22;2832;50.864;12.186;2023-01-24T19:52:31;3.70;99.90
5621;DHT22;2832;50.864;12.186;2023-01-24T19:55:01;3.70;99.90
5621;DHT22;2832;50.864;12.186;2023-01-24T19:57:30;3.70;99.90
5621;DHT22;2832;50.864;12.186;2023-01-24T20:00:00;3.80;99.90
5621;DHT22;2832;50.864;12.186;2023-01-24T20:02:33;3.80;99.90
5621;DHT22;2832;50.864;12.186;2023-01-24T20:05:03;3.70;99.90
5621;DHT22;2832;50.864;12.186;2023-01-24T20:07:33;3.70;99.90
5621;DHT22;2832;50.864;12.186;2023-01-24T20:10:03;3.70;99.90
5621;DHT22;2832;50.864;12.186;2023-01-24T20:12:33;3.80;99.90
5621;DHT22;2832;50.864;12.186;2023-01-24T20:15:03;3.80;99.90
5621;DHT22;2832;50.864;12.186;2023-01-24T20:17:42;3.80;99.90
5621;DHT22;2832;50.864;12.186;2023-01-24T20:20:12;3.80;99.90
5621;DHT22;2832;50.864;12.186;2023-01-24T20:22:41;3.80;99.90
5621;DHT22;2832;50.864;12.186;2023-01-24T20:25:11;3.80;99.90
5621;DHT22;2832;50.864;12.186;2023-01-24T20:27:40;3.70;99.90
5621;DHT22;2832;50.864;12.186;2023-01-24T20:30:13;3.80;99.90
5621;DHT22;2832;50.864;12.186;2023-01-24T20:32:46;3.80;99.90
5621;DHT22;2832;50.864;12.186;2023-01-24T20:35:16;3.80;99.90
5621;DHT22;2832;50.864;12.186;2023-01-24T20:37:45;3.80;99.90
5621;DHT22;2832;50.864;12.186;2023-01-24T20:40:15;3.80;99.90
5621;DHT22;2832;50.864;12.186;2023-01-24T20:42:45;3.80;99.90
5621;DHT22;2832;50.864;12.186;2023-01-24T20:45:15;3.70;99.90
5621;DHT22;2832;50.864;12.186;2023-01-24T20:47:49;3.60;99.90
5621;DHT22;2832;50.864;12.186;2023-01-24T20:50:19;3.50;99.90
5621;DHT22;2832;50.864;12.186;2023-01-24T20:52:48;3.60;99.90
5621;DHT22;2832;50.864;12.186;2023-01-24T20:55:17;3.70;99.90
5621;DHT22;2832;50.864;12.186;2023-01-24T20:57:47;3.70;99.90
5621;DHT22;2832;50.864;12.186;2023-01-24T21:00:17;3.60;99.90
5621;DHT22;2832;50.864;12.186;2023-01-24T21:02:51;3.50;99.90
5621;DHT22;2832;50.864;12.186;2023-01-24T21:05:22;3.60;99.90
5621;DHT22;2832;50.864;12.186;2023-01-24T21:07:56;3.60;99.90
5621;DHT22;2832;50.864;12.186;2023-01-24T21:10:26;3.60;99.90
5621;DHT22;2832;50.864;12.186;2023-01-24T21:12:56;3.60;99.90
5621;DHT22;2832;50.864;12.186;2023-01-24T21:15:25;3.70;99.90
5621;DHT22;2832;50.864;12.186;2023-01-24T21:17:58;3.70;99.90
5621;DHT22;2832;50.864;12.186;2023-01-24T21:20:28;3.70;99.90
5621;DHT22;2832;50.864;12.186;2023-01-24T21:22:57;3.70;99.90
5621;DHT22;2832;50.864;12.186;2023-01-24T21:25:26;3.60;99.90
5621;DHT22;2832;50.864;12.186;2023-01-24T21:27:56;3.70;99.90
5621;DHT22;2832;50.864;12.186;2023-01-24T21:30:27;3.60;99.90
5621;DHT22;2832;50.864;12.186;2023-01-24T21:33:00;3.70;99.90
5621;DHT22;2832;50.864;12.186;2023-01-24T21:35:30;3.70;99.90
5621;DHT22;2832;50.864;12.186;2023-01-24T21:38:00;3.80;99.90
5621;DHT22;2832;50.864;12.186;2023-01-24T21:40:29;3.80;99.90
5621;DHT22;2832;50.864;12.186;2023-01-24T21:43:20;3.70;99.90
5621;DHT22;2832;50.864;12.186;2023-01-24T21:45:50;3.70;99.90
5621;DHT22;2832;50.864;12.186;2023-01-24T21:48:21;3.60;99.90
5621;DHT22;2832;50.864;12.186;2023-01-24T21:51:10;3.70;99.90
5621;DHT22;2832;50.864;12.186;2023-01-24T21:53:40;3.70;99.90
5621;DHT22;2832;50.864;12.186;2023-01-24T21:56:25;3.70;99.90
5621;DHT22;2832;50.864;12.186;2023-01-24T21:59:10;3.70;99.90
5621;DHT22;2832;50.864;12.186;2023-01-24T22:01:40;3.70;99.90
5621;DHT22;2832;50.864;12.186;2023-01-24T22:04:14;3.70;99.90
5621;DHT22;2832;50.864;12.186;2023-01-24T22:06:44;3.70;99.90
5621;DHT22;2832;50.864;12.186;2023-01-24T22:09:15;3.70;99.90
5621;DHT22;2832;50.864;12.186;2023-01-24T22:11:45;3.60;99.90
5621;DHT22;2832;50.864;12.186;2023-01-24T22:14:17;3.50;99.90
5621;DHT22;2832;50.864;12.186;2023-01-24T22:16:49;3.60;99.90
5621;DHT22;2832;50.864;12.186;2023-01-24T22:19:38;3.60;99.90
5621;DHT22;2832;50.864;12.186;2023-01-24T22:25:34;3.60;99.90
5621;DHT22;2832;50.864;12.186;2023-01-24T22:28:08;3.70;99.90
5621;DHT22;2832;50.864;12.186;2023-01-24T22:30:43;3.70;99.90
5621;DHT22;2832;50.864;12.186;2023-01-24T22:33:13;3.70;99.90
5621;DHT22;2832;50.864;12.186;2023-01-24T22:35:46;3.80;99.90
5621;DHT22;2832;50.864;12.186;2023-01-24T22:38:19;3.80;99.90
5621;DHT22;2832;50.864;12.186;2023-01-24T22:40:52;3.70;99.90
5621;DHT22;2832;50.864;12.186;2023-01-24T22:43:22;3.80;99.90
5621;DHT22;2832;50.864;12.186;2023-01-24T22:45:51;3.80;99.90
5621;DHT22;2832;50.864;12.186;2023-01-24T22:48:21;3.80;99.90
5621;DHT22;2832;50.864;12.186;2023-01-24T22:50:59;3.70;99.90
5621;DHT22;2832;50.864;12.186;2023-01-24T22:53:30;3.70;99.90
5621;DHT22;2832;50.864;12.186;2023-01-24T22:56:04;3.70;99.90
5621;DHT22;2832;50.864;12.186;2023-01-24T22:58:46;3.70;99.90
5621;DHT22;2832;50.864;12.186;2023-01-24T23:01:26;3.80;99.90
5621;DHT22;2832;50.864;12.186;2023-01-24T23:03:56;3.80;99.90
5621;DHT22;2832;50.864;12.186;2023-01-24T23:06:37;3.80;99.90
5621;DHT22;2832;50.864;12.186;2023-01-24T23:09:07;3.80;99.90
5621;DHT22;2832;50.864;12.186;2023-01-24T23:11:37;3.90;99.90
5621;DHT22;2832;50.864;12.186;2023-01-24T23:14:08;3.90;99.90
5621;DHT22;2832;50.864;12.186;2023-01-24T23:16:55;3.90;99.90
5621;DHT22;2832;50.864;12.186;2023-01-24T23:19:32;3.90;99.90
5621;DHT22;2832;50.864;12.186;2023-01-24T23:22:29;3.90;99.90
5621;DHT22;2832;50.864;12.186;2023-01-24T23:25:00;3.80;99.90
5621;DHT22;2832;50.864;12.186;2023-01-24T23:27:32;3.90;99.90
5621;DHT22;2832;50.864;12.186;2023-01-24T23:30:24;3.90;99.90
5621;DHT22;2832;50.864;12.186;2023-01-24T23:33:00;3.90;99.90
5621;DHT22;2832;50.864;12.186;2023-01-24T23:35:30;3.90;99.90
5621;DHT22;2832;50.864;12.186;2023-01-24T23:38:03;3.90;99.90
5621;DHT22;2832;50.864;12.186;2023-01-24T23:40:33;3.90;99.90
5621;DHT22;2832;50.864;12.186;2023-01-24T23:43:02;3.90;99.90
5621;DHT22;2832;50.864;12.186;2023-01-24T23:45:32;3.90;99.90
5621;DHT22;2832;50.864;12.186;2023-01-24T23:48:02;3.90;99.90
